HUT weather

Hutchinson Municipal Airport
Hutchinson, Kansas, United States

Public forecast

Using degrees Fahrenheit for public forecast. Weather courtesy of forecast.io.

Current aviation weather report (METAR) for Hutchinson Municipal Airport

Retrieved 2019/11/18 06:52 UTC (49 minutes ago):

KHUT 180652Z AUTO 17003KT 10SM CLR 04/M02 A2991 RMK AO2 SLP124 T00391022

Aviation forecast (TAF) for Hutchinson Municipal Airport

Retrieved 2019/11/18 06:24 UTC (1 hour ago):

TAF KHUT 180523Z 1806/1906 VRB03KT P6SM BKN250 FM180900 21006KT P6SM SCT050 OVC120 FM181400 28008KT P6SM SCT050 BKN120 FM181700 31013G19KT P6SM SCT050 SCT150 FM182300 32014KT P6SM SKC